Terminal Aerodrome Forecast
Issued by NWS

Home | Current Version | Previous Version | Text Only | Print | Product List | Glossary On
Versions: 1 2 3 4 5 6 7 8 9 10 11 12 13
000
FTAK31 PAFA 250539
TAFAUN
TAF
PAUN 250539Z 2506/2606 07013KT P6SM OVC080
     FM260000 04010KT P6SM OVC050
     FM260500 06010KT P6SM -RA OVC015=

USA.gov is the U.S. government's official web portal to all federal, state and local government web resources and services.